createdAt,value
2023-04-12T00:04:15.420Z,99.90
2023-04-12T00:06:49.590Z,99.90
2023-04-12T00:13:14.766Z,99.90
2023-04-12T00:15:42.015Z,99.90
2023-04-12T00:21:34.081Z,99.90
2023-04-12T00:24:03.995Z,99.90
2023-04-12T00:27:02.200Z,99.90
2023-04-12T00:29:56.073Z,99.90
2023-04-12T00:33:12.930Z,99.90
2023-04-12T00:36:10.088Z,99.90
2023-04-12T00:38:37.574Z,99.90
2023-04-12T00:41:07.673Z,99.90
2023-04-12T00:43:35.600Z,99.90
2023-04-12T00:50:17.240Z,99.90
2023-04-12T00:56:18.415Z,99.90
2023-04-12T00:58:54.623Z,99.90
2023-04-12T01:01:24.578Z,99.90
2023-04-12T01:07:36.930Z,99.90
2023-04-12T01:10:36.213Z,99.90
2023-04-12T01:16:50.942Z,99.90
2023-04-12T01:29:58.544Z,99.90
2023-04-12T01:35:51.702Z,99.90
2023-04-12T01:41:22.701Z,99.90
2023-04-12T01:43:52.887Z,99.90
2023-04-12T01:54:04.182Z,99.90
2023-04-12T01:59:59.844Z,99.90
2023-04-12T02:05:41.999Z,99.90
2023-04-12T02:11:52.078Z,99.90
2023-04-12T02:18:04.566Z,99.90
2023-04-12T02:34:38.148Z,99.90
2023-04-12T02:37:59.226Z,99.90
2023-04-12T02:44:15.264Z,99.90
2023-04-12T02:50:55.045Z,99.90
2023-04-12T04:22:53.577Z,99.90
2023-04-12T07:00:53.660Z,83.60
2023-04-12T07:20:59.203Z,80.90
2023-04-12T07:23:52.809Z,80.30
2023-04-12T07:30:16.450Z,79.30
2023-04-12T07:40:09.683Z,78.90
2023-04-12T08:29:05.276Z,71.70
2023-04-12T08:42:55.023Z,74.00
2023-04-12T08:45:50.402Z,73.60
2023-04-12T08:59:02.456Z,72.20
2023-04-12T09:02:24.783Z,72.60
2023-04-12T09:04:58.558Z,72.60
2023-04-12T09:08:39.075Z,72.40
2023-04-12T09:11:48.062Z,72.00
2023-04-12T09:21:18.643Z,71.20
2023-04-12T09:24:02.139Z,71.80
2023-04-12T09:26:30.447Z,70.20
2023-04-12T09:28:57.829Z,69.80
2023-04-12T09:31:25.146Z,71.20
2023-04-12T09:33:52.642Z,71.20
2023-04-12T09:36:19.843Z,71.70
2023-04-12T09:39:01.523Z,71.00
2023-04-12T09:41:32.205Z,69.70
2023-04-12T09:44:00.462Z,69.90
2023-04-12T09:46:27.960Z,68.80
2023-04-12T09:48:56.508Z,68.10
2023-04-12T09:51:33.914Z,68.50
2023-04-12T09:54:03.541Z,68.70
2023-04-12T09:56:32.597Z,67.90
2023-04-12T09:59:03.205Z,67.40
2023-04-12T10:01:37.000Z,67.50
2023-04-12T10:04:09.396Z,68.30
2023-04-12T10:06:37.438Z,67.90
2023-04-12T10:09:06.977Z,67.80
2023-04-12T10:11:34.684Z,66.40
2023-04-12T10:14:07.093Z,65.60
2023-04-12T10:16:35.151Z,65.80
2023-04-12T10:19:04.144Z,64.60
2023-04-12T10:21:32.072Z,64.30
2023-04-12T10:23:59.687Z,64.10
2023-04-12T10:26:27.043Z,62.90
2023-04-12T10:29:25.554Z,63.80
2023-04-12T10:31:53.590Z,62.40
2023-04-12T10:34:27.906Z,64.10
2023-04-12T10:36:57.750Z,63.00
2023-04-12T10:39:53.010Z,64.00
2023-04-12T10:42:25.950Z,63.00
2023-04-12T10:45:16.767Z,61.60
2023-04-12T10:47:50.113Z,61.30
2023-04-12T10:50:31.358Z,60.70
2023-04-12T10:53:13.155Z,60.50
2023-04-12T10:55:41.354Z,57.20
2023-04-12T10:58:08.745Z,58.40
2023-04-12T11:00:58.390Z,57.50
2023-04-12T11:03:28.487Z,58.20
2023-04-12T11:06:16.211Z,56.40
2023-04-12T11:09:25.427Z,58.70
2023-04-12T11:11:58.944Z,57.30
2023-04-12T11:14:38.275Z,54.40
2023-04-12T11:17:15.040Z,54.50
2023-04-12T11:19:43.169Z,55.10
2023-04-12T11:22:13.025Z,57.30
2023-04-12T11:24:42.983Z,56.30
2023-04-12T11:27:10.755Z,56.30
2023-04-12T11:29:37.938Z,57.70
2023-04-12T11:32:07.447Z,57.90
2023-04-12T11:34:36.413Z,56.70
2023-04-12T11:37:08.183Z,56.40
2023-04-12T11:39:46.020Z,55.90
2023-04-12T11:42:18.208Z,57.10
2023-04-12T11:47:19.482Z,57.10
2023-04-12T11:49:52.241Z,56.40
2023-04-12T11:52:21.682Z,56.20
2023-04-12T11:54:50.791Z,54.50
2023-04-12T11:57:19.333Z,53.10
2023-04-12T11:59:48.796Z,53.10
2023-04-12T12:02:23.765Z,54.70
2023-04-12T12:04:52.066Z,57.80
2023-04-12T12:07:21.478Z,55.50
2023-04-12T12:09:50.177Z,55.10
2023-04-12T12:12:18.504Z,56.20
2023-04-12T12:14:47.572Z,54.40
2023-04-12T12:17:17.799Z,55.00
2023-04-12T12:19:46.495Z,53.70
2023-04-12T12:22:18.552Z,53.70
2023-04-12T12:25:06.827Z,53.70
2023-04-12T12:27:37.594Z,54.10
2023-04-12T12:30:07.656Z,53.90
2023-04-12T12:32:37.569Z,54.00
2023-04-12T12:35:15.990Z,54.40
2023-04-12T12:37:58.825Z,53.40
2023-04-12T12:40:32.651Z,54.00
2023-04-12T12:43:00.955Z,53.70
2023-04-12T12:45:31.465Z,53.70
2023-04-12T12:47:59.542Z,54.50
2023-04-12T12:50:29.471Z,53.50
2023-04-12T12:52:57.475Z,54.10
2023-04-12T12:55:24.989Z,52.90
2023-04-12T12:58:06.672Z,53.40
2023-04-12T13:00:35.626Z,53.80
2023-04-12T13:03:03.402Z,53.70
2023-04-12T13:05:33.385Z,53.10
2023-04-12T13:08:01.153Z,53.00
2023-04-12T13:10:29.492Z,54.00
2023-04-12T13:12:56.840Z,53.20
2023-04-12T13:15:24.812Z,51.90
2023-04-12T13:17:53.180Z,52.00
2023-04-12T13:20:21.136Z,51.80
2023-04-12T13:22:48.827Z,52.40
2023-04-12T13:25:15.964Z,51.10
2023-04-12T13:27:45.596Z,51.60
2023-04-12T13:30:12.955Z,52.00
2023-04-12T13:32:40.949Z,51.90
2023-04-12T13:35:12.920Z,52.20
2023-04-12T13:37:44.472Z,51.90
2023-04-12T13:40:11.938Z,51.60
2023-04-12T13:42:39.405Z,51.20
2023-04-12T13:45:07.755Z,50.80
2023-04-12T13:47:35.505Z,50.90
2023-04-12T13:50:02.773Z,51.50
2023-04-12T13:52:30.137Z,51.00
2023-04-12T13:55:00.039Z,50.70
2023-04-12T13:57:27.089Z,51.20
2023-04-12T13:59:54.308Z,50.90
2023-04-12T14:02:21.444Z,50.70
2023-04-12T14:04:53.757Z,50.80
2023-04-12T14:07:21.717Z,50.90
2023-04-12T14:09:49.063Z,50.90
2023-04-12T14:12:16.273Z,50.60
2023-04-12T14:14:43.444Z,49.10
2023-04-12T14:17:11.463Z,49.80
2023-04-12T14:19:40.088Z,48.40
2023-04-12T14:22:07.127Z,49.20
2023-04-12T14:24:34.184Z,49.00
2023-04-12T14:27:02.474Z,49.20
2023-04-12T14:29:29.705Z,50.70
2023-04-12T14:31:56.769Z,51.10
2023-04-12T14:34:23.888Z,48.70
2023-04-12T14:36:51.221Z,50.30
2023-04-12T14:39:18.692Z,49.70
2023-04-12T14:41:46.129Z,49.60
2023-04-12T14:44:13.175Z,49.20
2023-04-12T14:46:40.292Z,49.30
2023-04-12T14:49:07.350Z,50.70
2023-04-12T14:51:35.216Z,48.90
2023-04-12T14:54:02.338Z,48.40
2023-04-12T14:56:31.324Z,48.10
2023-04-12T14:58:58.939Z,48.40
2023-04-12T15:01:27.199Z,46.40
2023-04-12T15:03:54.543Z,47.80
2023-04-12T15:06:23.670Z,47.50
2023-04-12T15:08:54.394Z,47.00
2023-04-12T15:11:27.499Z,49.10
2023-04-12T15:13:55.640Z,48.50
2023-04-12T15:16:23.450Z,48.10
2023-04-12T15:18:51.829Z,48.60
2023-04-12T15:21:19.143Z,48.00
2023-04-12T15:23:47.249Z,49.00
2023-04-12T15:26:14.475Z,49.10
2023-04-12T15:28:42.721Z,49.80
2023-04-12T15:31:12.266Z,50.00
2023-04-12T15:33:39.381Z,48.50
2023-04-12T15:36:07.038Z,49.20
2023-04-12T15:38:41.464Z,47.90
2023-04-12T15:41:09.639Z,48.10
2023-04-12T15:43:37.227Z,47.50
2023-04-12T15:46:04.646Z,47.10
2023-04-12T15:48:31.776Z,48.80
2023-04-12T15:51:00.297Z,48.80
2023-04-12T15:53:27.673Z,48.60
2023-04-12T15:55:55.555Z,49.20
2023-04-12T15:58:27.351Z,49.90
2023-04-12T16:00:54.987Z,49.20
2023-04-12T16:03:26.506Z,49.60
2023-04-12T16:05:54.366Z,49.80
2023-04-12T16:08:22.613Z,49.70
2023-04-12T16:10:53.151Z,49.30
2023-04-12T16:13:20.813Z,50.00
2023-04-12T16:15:48.338Z,49.60
2023-04-12T16:18:17.361Z,48.90
2023-04-12T16:20:45.335Z,49.00
2023-04-12T16:23:13.026Z,48.70
2023-04-12T16:25:40.419Z,49.30
2023-04-12T16:28:08.354Z,49.60
2023-04-12T16:30:36.790Z,49.30
2023-04-12T16:33:04.897Z,49.70
2023-04-12T16:35:32.093Z,49.40
2023-04-12T16:37:59.089Z,49.60
2023-04-12T16:40:27.137Z,49.40
2023-04-12T16:42:54.257Z,50.10
2023-04-12T16:45:22.714Z,49.80
2023-04-12T16:47:50.413Z,51.40
2023-04-12T16:50:17.930Z,51.70
2023-04-12T16:52:45.190Z,52.30
2023-04-12T16:55:13.127Z,52.60
2023-04-12T16:57:42.381Z,52.00
2023-04-12T17:00:21.476Z,52.90
2023-04-12T17:02:53.842Z,53.10
2023-04-12T17:05:22.119Z,53.10
2023-04-12T17:07:55.192Z,54.00
2023-04-12T17:10:24.987Z,54.10
2023-04-12T17:12:56.234Z,54.60
2023-04-12T17:15:25.862Z,55.10
2023-04-12T17:18:00.357Z,55.00
2023-04-12T17:20:28.021Z,55.60
2023-04-12T17:22:56.943Z,55.60
2023-04-12T17:25:27.129Z,55.40
2023-04-12T17:27:55.434Z,56.00
2023-04-12T17:30:24.365Z,55.90
2023-04-12T17:32:52.368Z,55.60
2023-04-12T17:35:21.335Z,56.50
2023-04-12T17:37:49.740Z,56.10
2023-04-12T17:40:17.816Z,56.50
2023-04-12T17:42:45.479Z,55.90
2023-04-12T17:45:14.975Z,55.40
2023-04-12T17:47:43.349Z,56.50
2023-04-12T17:50:11.709Z,57.80
2023-04-12T17:52:39.438Z,60.20
2023-04-12T17:55:09.339Z,62.00
2023-04-12T17:57:37.537Z,62.70
2023-04-12T18:00:12.294Z,62.60
2023-04-12T18:02:40.920Z,62.40
2023-04-12T18:05:10.651Z,64.50
2023-04-12T18:07:58.651Z,64.90
2023-04-12T18:10:27.948Z,66.10
2023-04-12T18:12:55.901Z,67.00
2023-04-12T18:15:24.948Z,66.00
2023-04-12T18:17:52.794Z,64.20
2023-04-12T18:20:20.574Z,65.90
2023-04-12T18:22:48.291Z,67.40
2023-04-12T18:25:17.294Z,68.00
2023-04-12T18:27:48.788Z,68.60
2023-04-12T18:30:19.715Z,70.20
2023-04-12T18:32:48.423Z,70.70
2023-04-12T18:35:16.986Z,69.80
2023-04-12T18:37:46.761Z,70.80
2023-04-12T18:40:16.121Z,71.40
2023-04-12T18:42:50.686Z,72.20
2023-04-12T18:45:23.410Z,72.90
2023-04-12T18:47:53.534Z,71.00
2023-04-12T18:50:42.518Z,70.20
2023-04-12T18:53:11.361Z,71.70
2023-04-12T18:55:40.791Z,73.70
2023-04-12T18:58:09.170Z,74.70
2023-04-12T19:00:37.097Z,74.60
2023-04-12T19:03:05.456Z,74.40
2023-04-12T19:05:36.410Z,74.70
2023-04-12T19:08:06.493Z,75.40
2023-04-12T19:10:37.313Z,75.70
2023-04-12T19:13:06.466Z,76.40
2023-04-12T19:15:36.095Z,77.00
2023-04-12T19:18:04.617Z,77.00
2023-04-12T19:20:33.536Z,77.00
2023-04-12T19:23:04.817Z,76.30
2023-04-12T19:25:33.770Z,75.40
2023-04-12T19:28:02.023Z,75.50
2023-04-12T19:30:32.428Z,75.40
2023-04-12T19:33:00.697Z,76.30
2023-04-12T19:35:32.910Z,78.80
2023-04-12T19:40:42.389Z,79.40
2023-04-12T19:43:12.792Z,79.60
2023-04-12T19:45:41.020Z,78.50
2023-04-12T19:48:09.077Z,77.80
2023-04-12T19:50:38.259Z,77.90
2023-04-12T19:53:06.900Z,78.60
2023-04-12T19:55:35.067Z,78.50
2023-04-12T19:58:04.065Z,78.40
2023-04-12T20:00:32.389Z,79.00
2023-04-12T20:03:00.701Z,78.70
2023-04-12T20:05:31.854Z,76.70
2023-04-12T20:08:01.642Z,77.20
2023-04-12T20:10:29.769Z,77.20
2023-04-12T20:12:57.500Z,76.50
2023-04-12T20:15:25.885Z,76.50
2023-04-12T20:17:53.973Z,78.30
2023-04-12T20:20:22.082Z,79.60
2023-04-12T20:22:52.504Z,79.60
2023-04-12T20:25:21.104Z,80.90
2023-04-12T20:27:52.523Z,81.30
2023-04-12T20:30:21.821Z,81.20
2023-04-12T20:32:49.761Z,80.00
2023-04-12T20:35:19.254Z,80.10
2023-04-12T20:37:51.235Z,79.40
2023-04-12T20:40:20.574Z,79.10
2023-04-12T20:42:48.401Z,81.30
2023-04-12T20:45:18.066Z,82.00
2023-04-12T20:47:45.974Z,82.90
2023-04-12T20:50:13.394Z,81.70
2023-04-12T20:52:43.279Z,82.50
2023-04-12T20:55:11.462Z,82.00
2023-04-12T20:57:38.637Z,81.80
2023-04-12T21:00:17.456Z,82.90
2023-04-12T21:02:46.133Z,82.50
2023-04-12T21:05:14.989Z,81.70
2023-04-12T21:07:42.114Z,80.50
2023-04-12T21:10:12.379Z,80.40
2023-04-12T21:12:40.632Z,81.20
2023-04-12T21:15:08.719Z,81.20
2023-04-12T21:17:36.398Z,80.50
2023-04-12T21:20:13.834Z,81.50
2023-04-12T21:22:43.109Z,82.40
2023-04-12T21:25:13.784Z,82.00
2023-04-12T21:27:42.571Z,80.50
2023-04-12T21:30:13.820Z,80.90
2023-04-12T21:32:42.997Z,80.00
2023-04-12T21:35:11.347Z,79.10
2023-04-12T21:37:39.532Z,80.00
2023-04-12T21:40:09.443Z,79.90
2023-04-12T21:42:37.324Z,78.90
2023-04-12T21:45:11.409Z,77.90
2023-04-12T21:47:41.007Z,78.30
2023-04-12T21:50:12.191Z,78.30
2023-04-12T21:52:41.225Z,80.70
2023-04-12T21:55:08.605Z,79.90
2023-04-12T21:57:36.533Z,80.30
2023-04-12T22:00:05.728Z,81.00
2023-04-12T22:02:38.988Z,80.60
2023-04-12T22:05:06.984Z,80.60
2023-04-12T22:07:34.083Z,80.30
2023-04-12T22:10:02.503Z,81.40
2023-04-12T22:12:30.237Z,82.20
2023-04-12T22:14:57.870Z,81.40
2023-04-12T22:17:25.049Z,80.10
2023-04-12T22:19:55.086Z,81.00
2023-04-12T22:22:22.870Z,80.60
2023-04-12T22:24:49.918Z,80.10
2023-04-12T22:27:17.498Z,79.80
2023-04-12T22:29:44.692Z,79.60
2023-04-12T22:32:12.195Z,78.90
2023-04-12T22:34:39.513Z,79.40
2023-04-12T22:37:07.238Z,78.60
2023-04-12T22:39:34.453Z,78.40
2023-04-12T22:42:01.560Z,78.60
2023-04-12T22:44:29.351Z,79.80
2023-04-12T22:46:56.858Z,82.30
2023-04-12T22:49:28.093Z,80.80
2023-04-12T22:51:55.853Z,82.30
2023-04-12T22:54:24.260Z,82.30
2023-04-12T22:56:51.887Z,81.80
2023-04-12T22:59:20.211Z,82.50
2023-04-12T23:01:47.585Z,82.20
2023-04-12T23:04:16.074Z,82.30
2023-04-12T23:06:44.620Z,82.70
2023-04-12T23:09:12.950Z,82.70
2023-04-12T23:11:41.110Z,81.80
2023-04-12T23:14:09.781Z,80.90
2023-04-12T23:16:51.839Z,81.80
2023-04-12T23:19:19.063Z,81.30
2023-04-12T23:21:46.129Z,81.70
2023-04-12T23:24:15.618Z,81.10
2023-04-12T23:26:45.181Z,80.80
2023-04-12T23:29:12.759Z,80.80
2023-04-12T23:31:41.452Z,81.50
2023-04-12T23:34:08.565Z,82.10
2023-04-12T23:36:36.120Z,84.30
2023-04-12T23:39:06.279Z,82.20
2023-04-12T23:41:33.916Z,81.80
2023-04-12T23:44:01.319Z,82.90
2023-04-12T23:46:28.714Z,84.00
2023-04-12T23:48:56.214Z,86.10
2023-04-12T23:51:23.358Z,86.20
2023-04-12T23:53:50.632Z,85.20
2023-04-12T23:56:17.792Z,84.60
2023-04-12T23:58:44.978Z,84.50
